Terminal Aerodrome Forecast
Issued by NWS Dallas/Fort Worth, TX

Home | Current Version | Previous Version | Text Only | Print | Product List | Glossary On
Versions: 1 2 3 4 5 6 7 8 9 10 11 12 13 14 15 16 17 18 19 20 21 22 23 24 25 26 27 28 29 30
000
FTUS44 KFWD 011800 AAA
TAFDFW
TAF AMD
KDFW 011819Z 0118/0224 17013KT P6SM FEW030 SCT040
     FM021100 18011KT P6SM OVC015
     FM021600 19018KT P6SM VCSH BKN025
     FM022200 21017KT P6SM VCTS BKN050CB=

USA.gov is the U.S. government's official web portal to all federal, state and local government web resources and services.